Accueil
METAR-TAF:

METAR-TAF

Aéroports :

Locarno, Suisse

latitude: 46-09-55N, longitude: 8-52-40E, altitude: 198 m

Observation

Le bulletin a été fait il y a 39 minutes, à 02:50 UTC
Vent calme
Température 20°C
Humidité 78%
Pression 1021 hPa
Visibilité 10 km ou plus
Nuages épars à une hauteur de 5200 ft
Nuages épars à une hauteur de 7600 ft

METAR: LSZL 200250Z AUTO 00000KT 9999NDV SCT052 SCT076 20/16 Q1021 RMK

Heure: 05:29 (03:29 UTC)

Prévision

Le bulletin a été fait il y a 1 heure et 4 minutes, à 02:25 UTC
Prévision valable du 20 à 03 UTC au 20 à 12 UTC
Vent 3 kt de direction variable
Visibilité 10 km ou plus
Nuages épars à une hauteur de 5500 ft
Nuages épars à une hauteur de 7000 ft
Temporairement
du 20 à 09 UTC au 20 à 12 UTC
Visibilité 10 km ou plus
pas de nuages en-dessous de 1500 mètres et pas de cumulonimbus.

TAF: LSZL 200225Z 2003/2012 VRB03KT 9999 SCT055 SCT070 TEMPO 2009/2012 CAVOK

Observations et prévisions météorologiques de plus de 4000 aéroports (messages METAR et TAF).

Les stations disponibles sont représentées par des disques jaunes et rouges sur la carte.

Passer la souris dessus pour voir le nom de la station.

Cliquer dessus pour voir les observations et prévisions météorologiques.

Pour changer de carte: cliquez sur les boutons verts avec une croix noire pour zoomer, sur le bouton vert avec un tiret pour effectuer un zoom arrière, ou sur les flèches vertes pour les cartes adjacentes.


METAR-TAF: